Sacul, Texas
Current Conditions -  °F | °C
As of 2:35 AM on Saturday 20 Dec 2014 (Local Time) from KJSO Reporting Station
Haze Haze  
Wind Chill: 44°   Ceiling: 200
Heat Index: 46°   Visibility: 0.75mi
Dew Point: 46°   Wind: 6mph
Humidity: 99%   Direction: 30°NNE
Pressure: 30.18"   Gusts: NA
Location:  31.82°N, 94.92°W
Report Text: KJSO 200835Z AUTO 03005KT 3/4SM BR OVC002 07/07 A3018 RMK AO2 T00800078
Loading
Personal Weather Stations






























Interactive Weather Map New forecast layout! Learn more

10-Day Weather Forecast

Advertisements
Track Severe Weather on mobile